sensor_id;sensor_type;location;lat;lon;timestamp;pressure;altitude;pressure_sealevel;temperature
11424;BMP180;5768;51.476;7.210;2023-05-20T00:02:19;100999.00;;;17.20
11424;BMP180;5768;51.476;7.210;2023-05-20T00:07:22;100991.00;;;17.10
11424;BMP180;5768;51.476;7.210;2023-05-20T00:12:25;100997.00;;;17.10
11424;BMP180;5768;51.476;7.210;2023-05-20T00:17:27;100995.00;;;17.00
11424;BMP180;5768;51.476;7.210;2023-05-20T00:22:30;100992.00;;;17.00
11424;BMP180;5768;51.476;7.210;2023-05-20T00:27:33;100994.00;;;16.90
11424;BMP180;5768;51.476;7.210;2023-05-20T00:32:35;100993.00;;;16.90
11424;BMP180;5768;51.476;7.210;2023-05-20T00:37:39;100993.00;;;16.90
11424;BMP180;5768;51.476;7.210;2023-05-20T00:42:42;100997.00;;;16.80
11424;BMP180;5768;51.476;7.210;2023-05-20T00:47:45;100994.00;;;16.80
11424;BMP180;5768;51.476;7.210;2023-05-20T00:52:48;100985.00;;;16.70
11424;BMP180;5768;51.476;7.210;2023-05-20T00:57:52;100998.00;;;16.70
11424;BMP180;5768;51.476;7.210;2023-05-20T01:02:55;100986.00;;;16.70
11424;BMP180;5768;51.476;7.210;2023-05-20T01:07:58;100981.00;;;16.70
11424;BMP180;5768;51.476;7.210;2023-05-20T01:13:04;100978.00;;;16.60
11424;BMP180;5768;51.476;7.210;2023-05-20T01:18:09;100978.00;;;16.60
11424;BMP180;5768;51.476;7.210;2023-05-20T01:23:19;100975.00;;;16.60
11424;BMP180;5768;51.476;7.210;2023-05-20T01:28:22;100977.00;;;16.50
11424;BMP180;5768;51.476;7.210;2023-05-20T01:33:26;100973.00;;;16.40
11424;BMP180;5768;51.476;7.210;2023-05-20T01:38:31;100970.00;;;16.40
11424;BMP180;5768;51.476;7.210;2023-05-20T01:43:34;100964.00;;;16.40
11424;BMP180;5768;51.476;7.210;2023-05-20T01:48:37;100954.00;;;16.30
11424;BMP180;5768;51.476;7.210;2023-05-20T01:53:41;100956.00;;;16.20
11424;BMP180;5768;51.476;7.210;2023-05-20T01:58:43;100950.00;;;16.20
11424;BMP180;5768;51.476;7.210;2023-05-20T02:03:46;100951.00;;;16.20
11424;BMP180;5768;51.476;7.210;2023-05-20T02:08:49;100957.00;;;16.10
11424;BMP180;5768;51.476;7.210;2023-05-20T02:13:51;100958.00;;;16.00
11424;BMP180;5768;51.476;7.210;2023-05-20T02:18:54;100956.00;;;15.90
11424;BMP180;5768;51.476;7.210;2023-05-20T02:23:59;100958.00;;;15.90
11424;BMP180;5768;51.476;7.210;2023-05-20T02:29:02;100973.00;;;15.90
11424;BMP180;5768;51.476;7.210;2023-05-20T02:34:04;100964.00;;;15.80
11424;BMP180;5768;51.476;7.210;2023-05-20T02:39:08;100968.00;;;15.70
11424;BMP180;5768;51.476;7.210;2023-05-20T02:44:10;100967.00;;;15.70
11424;BMP180;5768;51.476;7.210;2023-05-20T02:49:12;100970.00;;;15.60
11424;BMP180;5768;51.476;7.210;2023-05-20T02:54:16;100961.00;;;15.60
11424;BMP180;5768;51.476;7.210;2023-05-20T02:59:18;100962.00;;;15.50
11424;BMP180;5768;51.476;7.210;2023-05-20T03:04:21;100949.00;;;15.50
11424;BMP180;5768;51.476;7.210;2023-05-20T03:09:27;100951.00;;;15.50
11424;BMP180;5768;51.476;7.210;2023-05-20T03:14:29;100951.00;;;15.40
11424;BMP180;5768;51.476;7.210;2023-05-20T03:19:31;100951.00;;;15.40
11424;BMP180;5768;51.476;7.210;2023-05-20T03:24:35;100942.00;;;15.40
11424;BMP180;5768;51.476;7.210;2023-05-20T03:29:37;100939.00;;;15.40
11424;BMP180;5768;51.476;7.210;2023-05-20T03:34:43;100946.00;;;15.40
11424;BMP180;5768;51.476;7.210;2023-05-20T03:39:46;100935.00;;;15.40
11424;BMP180;5768;51.476;7.210;2023-05-20T03:44:51;100937.00;;;15.40
11424;BMP180;5768;51.476;7.210;2023-05-20T03:49:53;100938.00;;;15.40
11424;BMP180;5768;51.476;7.210;2023-05-20T03:54:57;100936.00;;;15.40
11424;BMP180;5768;51.476;7.210;2023-05-20T03:59:59;100927.00;;;15.50
11424;BMP180;5768;51.476;7.210;2023-05-20T04:05:06;100925.00;;;15.50
11424;BMP180;5768;51.476;7.210;2023-05-20T04:10:14;100926.00;;;15.60
11424;BMP180;5768;51.476;7.210;2023-05-20T04:15:17;100943.00;;;15.70
11424;BMP180;5768;51.476;7.210;2023-05-20T04:20:19;100938.00;;;15.80
11424;BMP180;5768;51.476;7.210;2023-05-20T04:25:22;100953.00;;;15.90
11424;BMP180;5768;51.476;7.210;2023-05-20T04:30:26;100945.00;;;16.00
11424;BMP180;5768;51.476;7.210;2023-05-20T04:35:28;100942.00;;;16.10
11424;BMP180;5768;51.476;7.210;2023-05-20T04:40:32;100941.00;;;16.20
11424;BMP180;5768;51.476;7.210;2023-05-20T04:45:34;100945.00;;;16.30
11424;BMP180;5768;51.476;7.210;2023-05-20T04:50:37;100944.00;;;16.40
11424;BMP180;5768;51.476;7.210;2023-05-20T04:55:42;100939.00;;;16.50
11424;BMP180;5768;51.476;7.210;2023-05-20T05:00:45;100939.00;;;16.60
11424;BMP180;5768;51.476;7.210;2023-05-20T05:05:47;100937.00;;;16.70
11424;BMP180;5768;51.476;7.210;2023-05-20T05:10:51;100942.00;;;16.70
11424;BMP180;5768;51.476;7.210;2023-05-20T05:16:00;100941.00;;;16.80
11424;BMP180;5768;51.476;7.210;2023-05-20T05:21:04;100932.00;;;16.90
11424;BMP180;5768;51.476;7.210;2023-05-20T05:26:08;100941.00;;;17.00
11424;BMP180;5768;51.476;7.210;2023-05-20T05:31:10;100932.00;;;17.00
11424;BMP180;5768;51.476;7.210;2023-05-20T05:36:13;100930.00;;;17.10
11424;BMP180;5768;51.476;7.210;2023-05-20T05:41:16;100923.00;;;17.20
11424;BMP180;5768;51.476;7.210;2023-05-20T05:46:19;100924.00;;;17.30
11424;BMP180;5768;51.476;7.210;2023-05-20T05:51:21;100935.00;;;17.30
11424;BMP180;5768;51.476;7.210;2023-05-20T05:56:29;100925.00;;;17.40
11424;BMP180;5768;51.476;7.210;2023-05-20T06:01:31;100931.00;;;17.50
11424;BMP180;5768;51.476;7.210;2023-05-20T06:06:33;100915.00;;;17.60
11424;BMP180;5768;51.476;7.210;2023-05-20T06:11:37;100919.00;;;17.90
11424;BMP180;5768;51.476;7.210;2023-05-20T06:16:42;100910.00;;;18.10
11424;BMP180;5768;51.476;7.210;2023-05-20T06:21:44;100914.00;;;18.30
11424;BMP180;5768;51.476;7.210;2023-05-20T06:26:48;100907.00;;;18.20
11424;BMP180;5768;51.476;7.210;2023-05-20T06:31:51;100904.00;;;18.20
11424;BMP180;5768;51.476;7.210;2023-05-20T06:36:53;100910.00;;;18.50
11424;BMP180;5768;51.476;7.210;2023-05-20T06:41:57;100915.00;;;18.90
11424;BMP180;5768;51.476;7.210;2023-05-20T06:46:59;100915.00;;;19.30
11424;BMP180;5768;51.476;7.210;2023-05-20T06:52:02;100919.00;;;19.70
11424;BMP180;5768;51.476;7.210;2023-05-20T06:57:06;100910.00;;;20.10
11424;BMP180;5768;51.476;7.210;2023-05-20T07:02:09;100911.00;;;20.20
11424;BMP180;5768;51.476;7.210;2023-05-20T07:07:12;100910.00;;;20.20
11424;BMP180;5768;51.476;7.210;2023-05-20T07:12:18;100912.00;;;20.30
11424;BMP180;5768;51.476;7.210;2023-05-20T07:17:23;100903.00;;;20.40
11424;BMP180;5768;51.476;7.210;2023-05-20T07:22:25;100909.00;;;20.50
11424;BMP180;5768;51.476;7.210;2023-05-20T07:27:29;100903.00;;;20.60
11424;BMP180;5768;51.476;7.210;2023-05-20T07:32:31;100883.00;;;20.80
11424;BMP180;5768;51.476;7.210;2023-05-20T07:37:33;100884.00;;;21.00
11424;BMP180;5768;51.476;7.210;2023-05-20T07:42:37;100888.00;;;21.30
11424;BMP180;5768;51.476;7.210;2023-05-20T07:47:40;100888.00;;;21.50
11424;BMP180;5768;51.476;7.210;2023-05-20T07:52:42;100889.00;;;21.60
11424;BMP180;5768;51.476;7.210;2023-05-20T07:57:46;100888.00;;;21.90
11424;BMP180;5768;51.476;7.210;2023-05-20T08:02:49;100892.00;;;21.90
11424;BMP180;5768;51.476;7.210;2023-05-20T08:07:51;100892.00;;;22.10
11424;BMP180;5768;51.476;7.210;2023-05-20T08:12:55;100896.00;;;22.20
11424;BMP180;5768;51.476;7.210;2023-05-20T08:17:59;100895.00;;;22.50
11424;BMP180;5768;51.476;7.210;2023-05-20T08:23:02;100883.00;;;22.60
11424;BMP180;5768;51.476;7.210;2023-05-20T08:28:06;100875.00;;;22.70
11424;BMP180;5768;51.476;7.210;2023-05-20T08:33:08;100885.00;;;22.90
11424;BMP180;5768;51.476;7.210;2023-05-20T08:38:10;100886.00;;;23.00
11424;BMP180;5768;51.476;7.210;2023-05-20T08:43:14;100881.00;;;23.10
11424;BMP180;5768;51.476;7.210;2023-05-20T08:48:23;100874.00;;;23.30
11424;BMP180;5768;51.476;7.210;2023-05-20T08:53:27;100875.00;;;23.50
11424;BMP180;5768;51.476;7.210;2023-05-20T08:58:31;100875.00;;;23.70
11424;BMP180;5768;51.476;7.210;2023-05-20T09:03:34;100881.00;;;23.70
11424;BMP180;5768;51.476;7.210;2023-05-20T09:08:39;100881.00;;;23.70
11424;BMP180;5768;51.476;7.210;2023-05-20T09:13:43;100880.00;;;23.70
11424;BMP180;5768;51.476;7.210;2023-05-20T09:18:46;100872.00;;;23.70
11424;BMP180;5768;51.476;7.210;2023-05-20T09:23:48;100885.00;;;23.70
11424;BMP180;5768;51.476;7.210;2023-05-20T09:28:52;100899.00;;;23.60
11424;BMP180;5768;51.476;7.210;2023-05-20T09:33:55;100879.00;;;23.40
11424;BMP180;5768;51.476;7.210;2023-05-20T09:39:02;100883.00;;;23.60
11424;BMP180;5768;51.476;7.210;2023-05-20T09:44:06;100888.00;;;23.70
11424;BMP180;5768;51.476;7.210;2023-05-20T09:49:10;100888.00;;;23.90
11424;BMP180;5768;51.476;7.210;2023-05-20T09:54:17;100878.00;;;23.90
11424;BMP180;5768;51.476;7.210;2023-05-20T09:59:23;100882.00;;;24.00
11424;BMP180;5768;51.476;7.210;2023-05-20T10:04:29;100880.00;;;24.00
11424;BMP180;5768;51.476;7.210;2023-05-20T10:09:54;100883.00;;;23.90
11424;BMP180;5768;51.476;7.210;2023-05-20T10:15:16;100871.00;;;23.60
11424;BMP180;5768;51.476;7.210;2023-05-20T10:20:19;100859.00;;;23.80
11424;BMP180;5768;51.476;7.210;2023-05-20T10:25:25;100859.00;;;24.00
11424;BMP180;5768;51.476;7.210;2023-05-20T10:30:29;100846.00;;;24.00
11424;BMP180;5768;51.476;7.210;2023-05-20T10:35:31;100853.00;;;24.00
11424;BMP180;5768;51.476;7.210;2023-05-20T10:40:34;100847.00;;;24.10
11424;BMP180;5768;51.476;7.210;2023-05-20T10:45:49;100852.00;;;24.40
11424;BMP180;5768;51.476;7.210;2023-05-20T10:50:54;100847.00;;;24.50
11424;BMP180;5768;51.476;7.210;2023-05-20T10:55:58;100839.00;;;24.70
11424;BMP180;5768;51.476;7.210;2023-05-20T11:01:02;100843.00;;;24.90
11424;BMP180;5768;51.476;7.210;2023-05-20T11:06:11;100828.00;;;25.00
11424;BMP180;5768;51.476;7.210;2023-05-20T11:11:16;100820.00;;;25.30
11424;BMP180;5768;51.476;7.210;2023-05-20T11:16:21;100816.00;;;25.40
11424;BMP180;5768;51.476;7.210;2023-05-20T11:21:23;100811.00;;;25.60
11424;BMP180;5768;51.476;7.210;2023-05-20T11:26:28;100816.00;;;26.00
11424;BMP180;5768;51.476;7.210;2023-05-20T11:31:33;100806.00;;;26.30
11424;BMP180;5768;51.476;7.210;2023-05-20T11:36:40;100805.00;;;26.70
11424;BMP180;5768;51.476;7.210;2023-05-20T11:41:42;100792.00;;;27.10
11424;BMP180;5768;51.476;7.210;2023-05-20T11:46:47;100789.00;;;27.60
11424;BMP180;5768;51.476;7.210;2023-05-20T11:51:50;100790.00;;;28.00
11424;BMP180;5768;51.476;7.210;2023-05-20T11:56:53;100767.00;;;28.20
11424;BMP180;5768;51.476;7.210;2023-05-20T12:01:58;100765.00;;;28.20
11424;BMP180;5768;51.476;7.210;2023-05-20T12:07:00;100750.00;;;28.50
11424;BMP180;5768;51.476;7.210;2023-05-20T12:12:07;100759.00;;;28.40
11424;BMP180;5768;51.476;7.210;2023-05-20T12:17:18;100749.00;;;28.20
11424;BMP180;5768;51.476;7.210;2023-05-20T12:22:21;100739.00;;;27.60
11424;BMP180;5768;51.476;7.210;2023-05-20T12:27:28;100752.00;;;27.80
11424;BMP180;5768;51.476;7.210;2023-05-20T12:32:32;100736.00;;;28.30
11424;BMP180;5768;51.476;7.210;2023-05-20T12:37:36;100735.00;;;28.40
11424;BMP180;5768;51.476;7.210;2023-05-20T12:42:40;100753.00;;;28.20
11424;BMP180;5768;51.476;7.210;2023-05-20T12:47:44;100750.00;;;27.70
11424;BMP180;5768;51.476;7.210;2023-05-20T12:52:51;100745.00;;;27.40
11424;BMP180;5768;51.476;7.210;2023-05-20T12:57:54;100737.00;;;27.40
11424;BMP180;5768;51.476;7.210;2023-05-20T13:02:58;100731.00;;;27.80
11424;BMP180;5768;51.476;7.210;2023-05-20T13:08:00;100732.00;;;27.90
11424;BMP180;5768;51.476;7.210;2023-05-20T13:13:03;100719.00;;;27.80
11424;BMP180;5768;51.476;7.210;2023-05-20T13:18:06;100711.00;;;27.80
11424;BMP180;5768;51.476;7.210;2023-05-20T13:23:10;100716.00;;;27.60
11424;BMP180;5768;51.476;7.210;2023-05-20T13:28:14;100701.00;;;27.60
11424;BMP180;5768;51.476;7.210;2023-05-20T13:33:20;100702.00;;;27.70
11424;BMP180;5768;51.476;7.210;2023-05-20T13:38:24;100702.00;;;27.70
11424;BMP180;5768;51.476;7.210;2023-05-20T13:43:26;100699.00;;;27.30
11424;BMP180;5768;51.476;7.210;2023-05-20T13:48:30;100696.00;;;26.90
11424;BMP180;5768;51.476;7.210;2023-05-20T13:53:32;100692.00;;;27.00
11424;BMP180;5768;51.476;7.210;2023-05-20T13:58:35;100696.00;;;26.70
11424;BMP180;5768;51.476;7.210;2023-05-20T14:03:45;100678.00;;;26.00
11424;BMP180;5768;51.476;7.210;2023-05-20T14:08:55;100669.00;;;25.70
11424;BMP180;5768;51.476;7.210;2023-05-20T14:13:57;100682.00;;;25.70
11424;BMP180;5768;51.476;7.210;2023-05-20T14:19:01;100665.00;;;25.50
11424;BMP180;5768;51.476;7.210;2023-05-20T14:24:04;100651.00;;;25.20
11424;BMP180;5768;51.476;7.210;2023-05-20T14:29:06;100648.00;;;25.00
11424;BMP180;5768;51.476;7.210;2023-05-20T14:34:10;100648.00;;;25.30
11424;BMP180;5768;51.476;7.210;2023-05-20T14:39:16;100644.00;;;26.10
11424;BMP180;5768;51.476;7.210;2023-05-20T14:44:23;100651.00;;;26.30
11424;BMP180;5768;51.476;7.210;2023-05-20T14:49:26;100642.00;;;25.70
11424;BMP180;5768;51.476;7.210;2023-05-20T14:54:29;100642.00;;;25.20
11424;BMP180;5768;51.476;7.210;2023-05-20T14:59:32;100634.00;;;25.20
11424;BMP180;5768;51.476;7.210;2023-05-20T15:04:41;100635.00;;;25.60
11424;BMP180;5768;51.476;7.210;2023-05-20T15:09:46;100643.00;;;25.90
11424;BMP180;5768;51.476;7.210;2023-05-20T15:14:50;100642.00;;;25.70
11424;BMP180;5768;51.476;7.210;2023-05-20T15:19:54;100635.00;;;25.30
11424;BMP180;5768;51.476;7.210;2023-05-20T15:24:59;100643.00;;;24.90
11424;BMP180;5768;51.476;7.210;2023-05-20T15:30:02;100636.00;;;24.60
11424;BMP180;5768;51.476;7.210;2023-05-20T15:35:09;100635.00;;;24.50
11424;BMP180;5768;51.476;7.210;2023-05-20T15:40:12;100640.00;;;24.40
11424;BMP180;5768;51.476;7.210;2023-05-20T15:45:15;100641.00;;;24.30
11424;BMP180;5768;51.476;7.210;2023-05-20T15:50:19;100635.00;;;24.00
11424;BMP180;5768;51.476;7.210;2023-05-20T15:55:23;100632.00;;;23.70
11424;BMP180;5768;51.476;7.210;2023-05-20T16:00:26;100620.00;;;23.60
11424;BMP180;5768;51.476;7.210;2023-05-20T16:05:30;100627.00;;;23.30
11424;BMP180;5768;51.476;7.210;2023-05-20T16:10:35;100620.00;;;23.20
11424;BMP180;5768;51.476;7.210;2023-05-20T16:15:37;100623.00;;;23.00
11424;BMP180;5768;51.476;7.210;2023-05-20T16:20:41;100603.00;;;22.80
11424;BMP180;5768;51.476;7.210;2023-05-20T16:25:44;100611.00;;;22.70
11424;BMP180;5768;51.476;7.210;2023-05-20T16:30:46;100603.00;;;22.60
11424;BMP180;5768;51.476;7.210;2023-05-20T16:35:50;100604.00;;;22.60
11424;BMP180;5768;51.476;7.210;2023-05-20T16:40:53;100610.00;;;22.60
11424;BMP180;5768;51.476;7.210;2023-05-20T16:45:55;100592.00;;;22.60
11424;BMP180;5768;51.476;7.210;2023-05-20T16:50:59;100600.00;;;22.60
11424;BMP180;5768;51.476;7.210;2023-05-20T16:56:02;100609.00;;;22.50
11424;BMP180;5768;51.476;7.210;2023-05-20T17:01:04;100607.00;;;22.50
11424;BMP180;5768;51.476;7.210;2023-05-20T17:06:09;100620.00;;;22.50
11424;BMP180;5768;51.476;7.210;2023-05-20T17:11:12;100623.00;;;22.50
11424;BMP180;5768;51.476;7.210;2023-05-20T17:16:14;100622.00;;;22.40
11424;BMP180;5768;51.476;7.210;2023-05-20T17:21:17;100632.00;;;22.30
11424;BMP180;5768;51.476;7.210;2023-05-20T17:26:20;100627.00;;;22.20
11424;BMP180;5768;51.476;7.210;2023-05-20T17:31:23;100625.00;;;22.00
11424;BMP180;5768;51.476;7.210;2023-05-20T17:36:27;100631.00;;;22.00
11424;BMP180;5768;51.476;7.210;2023-05-20T17:41:32;100617.00;;;21.90
11424;BMP180;5768;51.476;7.210;2023-05-20T17:46:35;100625.00;;;21.90
11424;BMP180;5768;51.476;7.210;2023-05-20T17:51:38;100610.00;;;21.80
11424;BMP180;5768;51.476;7.210;2023-05-20T17:56:42;100618.00;;;21.70
11424;BMP180;5768;51.476;7.210;2023-05-20T18:01:47;100623.00;;;21.70
11424;BMP180;5768;51.476;7.210;2023-05-20T18:06:51;100620.00;;;21.70
11424;BMP180;5768;51.476;7.210;2023-05-20T18:11:53;100621.00;;;21.60
11424;BMP180;5768;51.476;7.210;2023-05-20T18:16:55;100626.00;;;21.60
11424;BMP180;5768;51.476;7.210;2023-05-20T18:21:59;100609.00;;;21.50
11424;BMP180;5768;51.476;7.210;2023-05-20T18:27:02;100631.00;;;21.40
11424;BMP180;5768;51.476;7.210;2023-05-20T18:32:06;100631.00;;;21.40
11424;BMP180;5768;51.476;7.210;2023-05-20T18:37:10;100626.00;;;21.30
11424;BMP180;5768;51.476;7.210;2023-05-20T18:42:12;100628.00;;;21.20
11424;BMP180;5768;51.476;7.210;2023-05-20T18:47:15;100619.00;;;21.10
11424;BMP180;5768;51.476;7.210;2023-05-20T18:52:21;100635.00;;;21.00
11424;BMP180;5768;51.476;7.210;2023-05-20T18:57:27;100630.00;;;21.00
11424;BMP180;5768;51.476;7.210;2023-05-20T19:02:29;100630.00;;;20.80
11424;BMP180;5768;51.476;7.210;2023-05-20T19:07:33;100630.00;;;20.70
11424;BMP180;5768;51.476;7.210;2023-05-20T19:12:36;100636.00;;;20.60
11424;BMP180;5768;51.476;7.210;2023-05-20T19:17:39;100630.00;;;20.40
11424;BMP180;5768;51.476;7.210;2023-05-20T19:22:42;100628.00;;;20.40
11424;BMP180;5768;51.476;7.210;2023-05-20T19:27:45;100632.00;;;20.30
11424;BMP180;5768;51.476;7.210;2023-05-20T19:32:47;100625.00;;;20.20
11424;BMP180;5768;51.476;7.210;2023-05-20T19:37:50;100615.00;;;20.00
11424;BMP180;5768;51.476;7.210;2023-05-20T19:42:53;100623.00;;;19.90
11424;BMP180;5768;51.476;7.210;2023-05-20T19:48:02;100634.00;;;19.70
11424;BMP180;5768;51.476;7.210;2023-05-20T19:53:05;100649.00;;;19.60
11424;BMP180;5768;51.476;7.210;2023-05-20T19:58:09;100638.00;;;19.50
11424;BMP180;5768;51.476;7.210;2023-05-20T20:03:11;100636.00;;;19.30
11424;BMP180;5768;51.476;7.210;2023-05-20T20:08:17;100634.00;;;19.10
11424;BMP180;5768;51.476;7.210;2023-05-20T20:13:20;100628.00;;;19.00
11424;BMP180;5768;51.476;7.210;2023-05-20T20:18:24;100624.00;;;18.80
11424;BMP180;5768;51.476;7.210;2023-05-20T20:23:28;100632.00;;;18.70
11424;BMP180;5768;51.476;7.210;2023-05-20T20:28:30;100635.00;;;18.60
11424;BMP180;5768;51.476;7.210;2023-05-20T20:33:33;100628.00;;;18.50
11424;BMP180;5768;51.476;7.210;2023-05-20T20:38:37;100628.00;;;18.50
11424;BMP180;5768;51.476;7.210;2023-05-20T20:43:39;100631.00;;;18.40
11424;BMP180;5768;51.476;7.210;2023-05-20T20:48:42;100627.00;;;18.30
11424;BMP180;5768;51.476;7.210;2023-05-20T20:53:48;100631.00;;;18.30
11424;BMP180;5768;51.476;7.210;2023-05-20T20:58:52;100627.00;;;18.20
11424;BMP180;5768;51.476;7.210;2023-05-20T21:03:57;100618.00;;;18.30
11424;BMP180;5768;51.476;7.210;2023-05-20T21:09:00;100618.00;;;18.40
11424;BMP180;5768;51.476;7.210;2023-05-20T21:14:03;100605.00;;;18.30
11424;BMP180;5768;51.476;7.210;2023-05-20T21:19:06;100588.00;;;18.10
11424;BMP180;5768;51.476;7.210;2023-05-20T21:24:10;100592.00;;;18.10
11424;BMP180;5768;51.476;7.210;2023-05-20T21:29:12;100591.00;;;18.00
11424;BMP180;5768;51.476;7.210;2023-05-20T21:34:14;100592.00;;;18.00
11424;BMP180;5768;51.476;7.210;2023-05-20T21:39:21;100592.00;;;17.90
11424;BMP180;5768;51.476;7.210;2023-05-20T21:44:23;100592.00;;;17.90
11424;BMP180;5768;51.476;7.210;2023-05-20T21:49:29;100588.00;;;17.90
11424;BMP180;5768;51.476;7.210;2023-05-20T21:54:41;100582.00;;;17.80
11424;BMP180;5768;51.476;7.210;2023-05-20T21:59:44;100579.00;;;17.80
11424;BMP180;5768;51.476;7.210;2023-05-20T22:04:50;100578.00;;;17.80
11424;BMP180;5768;51.476;7.210;2023-05-20T22:09:53;100563.00;;;17.90
11424;BMP180;5768;51.476;7.210;2023-05-20T22:14:55;100551.00;;;18.00
11424;BMP180;5768;51.476;7.210;2023-05-20T22:19:58;100550.00;;;18.10
11424;BMP180;5768;51.476;7.210;2023-05-20T22:25:04;100563.00;;;18.20
11424;BMP180;5768;51.476;7.210;2023-05-20T22:30:09;100549.00;;;18.20
11424;BMP180;5768;51.476;7.210;2023-05-20T22:35:12;100538.00;;;18.10
11424;BMP180;5768;51.476;7.210;2023-05-20T22:40:16;100529.00;;;17.90
11424;BMP180;5768;51.476;7.210;2023-05-20T22:45:18;100536.00;;;17.90
11424;BMP180;5768;51.476;7.210;2023-05-20T22:50:21;100537.00;;;17.80
11424;BMP180;5768;51.476;7.210;2023-05-20T22:55:25;100515.00;;;17.70
11424;BMP180;5768;51.476;7.210;2023-05-20T23:00:28;100522.00;;;17.60
11424;BMP180;5768;51.476;7.210;2023-05-20T23:05:30;100516.00;;;17.50
11424;BMP180;5768;51.476;7.210;2023-05-20T23:10:34;100514.00;;;17.40
11424;BMP180;5768;51.476;7.210;2023-05-20T23:15:37;100497.00;;;17.30
11424;BMP180;5768;51.476;7.210;2023-05-20T23:20:40;100491.00;;;17.20
11424;BMP180;5768;51.476;7.210;2023-05-20T23:25:44;100482.00;;;17.20
11424;BMP180;5768;51.476;7.210;2023-05-20T23:30:47;100488.00;;;17.10
11424;BMP180;5768;51.476;7.210;2023-05-20T23:35:49;100476.00;;;17.10
11424;BMP180;5768;51.476;7.210;2023-05-20T23:40:53;100475.00;;;17.00
11424;BMP180;5768;51.476;7.210;2023-05-20T23:45:56;100467.00;;;17.00
11424;BMP180;5768;51.476;7.210;2023-05-20T23:50:58;100466.00;;;17.00
11424;BMP180;5768;51.476;7.210;2023-05-20T23:56:03;100455.00;;;17.00
